Golva, ND (58632)

10:40 AM MDT on July 22, 2017 (GMT -0600)
Beach | | Change Station
Active Advisory: Fire Weather Warning

Elev 2756 ft 46.93 °N, 103.98 °W | Updated 5 minutes ago

Clear
Clear
79 °F
Feels Like 79 °F
N
21
Wind Variable Wind from WNW
Gusts 28 mph

Today
High -- | Low -- °F
--% Chance of Precip.
Yesterday
High -- | Low -- °F
Precip. -- in
Pressure 30.09 in
Visibility 10.0 miles
Clouds Clear
Dew Point 39 °F
Humidity 24%
Rainfall 0.00 in
Snow Depth Not available.
5:24 AM 8:39 PM
Waning Crescent, 1% visible
METAR K20U 221635Z AUTO 30018G24KT 10SM CLR 26/04 A3009 RMK AO2
Pressure 30.09 in
Visibility 10.0 miles
Clouds Clear
Dew Point 39 °F
Humidity 24%
Rainfall 0.00 in
Snow Depth Not available.
5:24 AM 8:39 PM
Waning Crescent, 1% visible
METAR K20U 221635Z AUTO 30018G24KT 10SM CLR 26/04 A3009 RMK AO2

Get Your Daily Forecast Email!

Thanks for signing up!

Be on the lookout for a verification email in your inbox.

You'll start receiving severe weather alerts in your inbox..

×

10-Day Weather Forecast

Almanac

Astronomy

Jul. 22, 2017 Rise Set
Actual Time
Civil Twilight
Nautical Twilight
Astronomical Twilight
Moon
Length of Visible Light
Length of Day
Tomorrow will be .
, % of the Moon is Illuminated

Today's Extremes

State Highs State Lows

Community

WunderPhotos

Category 6

Welcome to Category 6. This is the collective home for Weather Underground's featured writeups by Dr. Jeff Masters (right), Bob Henson (left), Chris Burt, and other regular contributors.

Nearby

Air Quality

  Air Quality AQ Index Pollutant
Not available.

Snow Depth

Station Depth Elevation

Earthquake Activity

City Distance Mag. Time & Date
Minimum magnitude displayed is 2.5.

Coastal Water Temperatures

Place Temperature

Stations

Nearby Weather Stations

Station Location Temp. Windchill Dew Point Humidity Wind Precip. Elev Updated Type
                   

Watches & Warnings

Fire Weather Warning
Issued: 3:22 AM MDT Jul. 22, 2017 – National Weather Service

... Red flag warning in effect from noon CDT /11 am MDT/ today to
9 PM CDT /8 PM MDT/ this evening for strong winds, low relative
humidities, and very dry fuels...

The National Weather Service in Bismarck has issued a red flag
warning, which is in effect from noon CDT /11 am MDT/ today to
9 PM CDT /8 PM MDT/ this evening. The Fire Weather Watch is no
longer in effect.

* Affected area... Golden Valley, Billings, Stark, slope,
Hettinger, Grant, Bowman, Adams, and Sioux counties.

* Wind... northwest winds between 20 and 30 mph.

* Humidity... minimum relative humidity between 15 and 20
percent.

* Temperatures... highs in the upper 80s.

* Impacts... any fires that develop could spread rapidly.

Precautionary/preparedness actions...

A red flag warning means that critical fire weather conditions
will occur, which can contribute to extreme fire behavior.



KS